sensor_id;sensor_type;location;lat;lon;timestamp;temperature;humidity
21682;DHT22;11002;48.256;10.084;2022-10-03T00:01:56;18.50;39.70
21682;DHT22;11002;48.256;10.084;2022-10-03T00:04:53;18.50;40.40
21682;DHT22;11002;48.256;10.084;2022-10-03T00:07:49;18.50;39.70
21682;DHT22;11002;48.256;10.084;2022-10-03T00:10:29;18.50;39.60
21682;DHT22;11002;48.256;10.084;2022-10-03T00:13:05;18.50;39.60
21682;DHT22;11002;48.256;10.084;2022-10-03T00:15:41;18.50;39.70
21682;DHT22;11002;48.256;10.084;2022-10-03T00:18:20;18.50;39.70
21682;DHT22;11002;48.256;10.084;2022-10-03T00:21:13;18.50;39.70
21682;DHT22;11002;48.256;10.084;2022-10-03T00:23:49;18.50;39.60
21682;DHT22;11002;48.256;10.084;2022-10-03T00:26:25;18.50;39.60
21682;DHT22;11002;48.256;10.084;2022-10-03T00:29:15;18.50;39.60
21682;DHT22;11002;48.256;10.084;2022-10-03T00:31:55;18.50;39.70
21682;DHT22;11002;48.256;10.084;2022-10-03T00:34:35;18.50;39.70
21682;DHT22;11002;48.256;10.084;2022-10-03T00:37:17;18.50;39.70
21682;DHT22;11002;48.256;10.084;2022-10-03T00:39:59;18.50;39.60
21682;DHT22;11002;48.256;10.084;2022-10-03T00:45:39;18.50;39.60
21682;DHT22;11002;48.256;10.084;2022-10-03T00:48:33;18.50;39.60
21682;DHT22;11002;48.256;10.084;2022-10-03T00:51:29;18.50;39.70
21682;DHT22;11002;48.256;10.084;2022-10-03T00:54:11;18.50;39.70
21682;DHT22;11002;48.256;10.084;2022-10-03T00:56:56;18.50;39.60
21682;DHT22;11002;48.256;10.084;2022-10-03T00:59:41;18.50;39.60
21682;DHT22;11002;48.256;10.084;2022-10-03T01:02:28;18.50;39.70
21682;DHT22;11002;48.256;10.084;2022-10-03T01:05:11;18.50;39.60
21682;DHT22;11002;48.256;10.084;2022-10-03T01:07:56;18.50;39.70
21682;DHT22;11002;48.256;10.084;2022-10-03T01:10:30;18.50;39.70
21682;DHT22;11002;48.256;10.084;2022-10-03T01:13:15;18.50;39.70
21682;DHT22;11002;48.256;10.084;2022-10-03T01:15:51;18.50;39.60
21682;DHT22;11002;48.256;10.084;2022-10-03T01:18:31;18.50;39.70
21682;DHT22;11002;48.256;10.084;2022-10-03T01:21:11;18.50;39.60
21682;DHT22;11002;48.256;10.084;2022-10-03T01:24:24;18.50;39.70
21682;DHT22;11002;48.256;10.084;2022-10-03T01:27:01;18.50;39.60
21682;DHT22;11002;48.256;10.084;2022-10-03T01:29:50;18.50;39.60
21682;DHT22;11002;48.256;10.084;2022-10-03T01:32:42;18.50;39.60
21682;DHT22;11002;48.256;10.084;2022-10-03T01:35:19;18.50;39.60
21682;DHT22;11002;48.256;10.084;2022-10-03T01:37:56;18.50;39.60
21682;DHT22;11002;48.256;10.084;2022-10-03T01:40:27;18.50;39.60
21682;DHT22;11002;48.256;10.084;2022-10-03T01:43:05;18.50;39.60
21682;DHT22;11002;48.256;10.084;2022-10-03T01:45:43;18.50;39.60
21682;DHT22;11002;48.256;10.084;2022-10-03T01:48:19;18.50;39.70
21682;DHT22;11002;48.256;10.084;2022-10-03T01:50:52;18.40;39.50
21682;DHT22;11002;48.256;10.084;2022-10-03T01:53:32;18.50;39.60
21682;DHT22;11002;48.256;10.084;2022-10-03T01:56:07;18.50;39.60
21682;DHT22;11002;48.256;10.084;2022-10-03T01:58:47;18.50;39.60
21682;DHT22;11002;48.256;10.084;2022-10-03T02:01:25;18.50;39.60
21682;DHT22;11002;48.256;10.084;2022-10-03T02:04:01;18.50;39.60
21682;DHT22;11002;48.256;10.084;2022-10-03T02:06:39;18.50;39.60
21682;DHT22;11002;48.256;10.084;2022-10-03T02:09:17;18.50;39.70
21682;DHT22;11002;48.256;10.084;2022-10-03T02:11:59;18.50;39.60
21682;DHT22;11002;48.256;10.084;2022-10-03T02:14:37;18.50;39.60
21682;DHT22;11002;48.256;10.084;2022-10-03T02:17:15;18.50;39.50
21682;DHT22;11002;48.256;10.084;2022-10-03T02:19:54;18.50;39.60
21682;DHT22;11002;48.256;10.084;2022-10-03T02:22:30;18.50;39.50
21682;DHT22;11002;48.256;10.084;2022-10-03T02:25:08;18.50;39.50
21682;DHT22;11002;48.256;10.084;2022-10-03T02:30:50;18.50;39.60
21682;DHT22;11002;48.256;10.084;2022-10-03T02:33:47;18.50;39.50
21682;DHT22;11002;48.256;10.084;2022-10-03T02:37:06;18.50;39.60
21682;DHT22;11002;48.256;10.084;2022-10-03T02:40:07;18.50;39.50
21682;DHT22;11002;48.256;10.084;2022-10-03T02:52:36;18.50;39.50
21682;DHT22;11002;48.256;10.084;2022-10-03T02:55:23;18.50;39.50
21682;DHT22;11002;48.256;10.084;2022-10-03T02:58:19;18.50;39.50
21682;DHT22;11002;48.256;10.084;2022-10-03T03:01:09;18.50;39.60
21682;DHT22;11002;48.256;10.084;2022-10-03T03:04:09;18.50;39.50
21682;DHT22;11002;48.256;10.084;2022-10-03T03:06:56;18.50;39.50
21682;DHT22;11002;48.256;10.084;2022-10-03T03:15:57;18.50;39.50
21682;DHT22;11002;48.256;10.084;2022-10-03T03:18:34;18.50;39.50
21682;DHT22;11002;48.256;10.084;2022-10-03T03:21:19;18.50;39.50
21682;DHT22;11002;48.256;10.084;2022-10-03T03:24:09;18.50;39.40
21682;DHT22;11002;48.256;10.084;2022-10-03T03:26:59;18.50;39.50
21682;DHT22;11002;48.256;10.084;2022-10-03T03:29:40;18.50;39.50
21682;DHT22;11002;48.256;10.084;2022-10-03T03:32:16;18.50;39.50
21682;DHT22;11002;48.256;10.084;2022-10-03T03:34:52;18.50;39.40
21682;DHT22;11002;48.256;10.084;2022-10-03T03:37:31;18.50;39.50
21682;DHT22;11002;48.256;10.084;2022-10-03T03:40:10;18.50;39.40
21682;DHT22;11002;48.256;10.084;2022-10-03T03:43:00;18.50;39.40
21682;DHT22;11002;48.256;10.084;2022-10-03T03:45:41;18.50;39.40
21682;DHT22;11002;48.256;10.084;2022-10-03T03:51:22;18.50;39.30
21682;DHT22;11002;48.256;10.084;2022-10-03T03:57:53;18.50;39.40
21682;DHT22;11002;48.256;10.084;2022-10-03T04:00:36;18.50;39.30
21682;DHT22;11002;48.256;10.084;2022-10-03T04:03:18;18.50;39.20
21682;DHT22;11002;48.256;10.084;2022-10-03T04:05:56;18.50;39.20
21682;DHT22;11002;48.256;10.084;2022-10-03T04:08:40;18.50;39.20
21682;DHT22;11002;48.256;10.084;2022-10-03T04:11:19;18.50;39.10
21682;DHT22;11002;48.256;10.084;2022-10-03T04:16:59;18.50;39.20
21682;DHT22;11002;48.256;10.084;2022-10-03T04:20:01;18.50;39.20
21682;DHT22;11002;48.256;10.084;2022-10-03T04:22:50;18.50;39.10
21682;DHT22;11002;48.256;10.084;2022-10-03T04:25:49;18.50;39.10
21682;DHT22;11002;48.256;10.084;2022-10-03T04:28:50;18.50;39.10
21682;DHT22;11002;48.256;10.084;2022-10-03T04:31:32;18.50;39.10
21682;DHT22;11002;48.256;10.084;2022-10-03T04:34:21;18.50;39.00
21682;DHT22;11002;48.256;10.084;2022-10-03T04:37:07;18.60;39.10
21682;DHT22;11002;48.256;10.084;2022-10-03T04:39:46;18.50;39.00
21682;DHT22;11002;48.256;10.084;2022-10-03T04:42:23;18.50;39.00
21682;DHT22;11002;48.256;10.084;2022-10-03T04:45:10;18.50;39.00
21682;DHT22;11002;48.256;10.084;2022-10-03T04:47:43;18.60;39.10
21682;DHT22;11002;48.256;10.084;2022-10-03T04:50:24;18.50;39.00
21682;DHT22;11002;48.256;10.084;2022-10-03T04:53:14;18.50;38.90
21682;DHT22;11002;48.256;10.084;2022-10-03T04:55:48;18.50;38.90
21682;DHT22;11002;48.256;10.084;2022-10-03T04:58:29;18.50;39.00
21682;DHT22;11002;48.256;10.084;2022-10-03T05:01:05;18.60;39.00
21682;DHT22;11002;48.256;10.084;2022-10-03T05:03:46;18.60;39.00
21682;DHT22;11002;48.256;10.084;2022-10-03T05:06:30;18.60;38.90
21682;DHT22;11002;48.256;10.084;2022-10-03T05:09:04;18.60;39.00
21682;DHT22;11002;48.256;10.084;2022-10-03T05:11:46;18.60;39.00
21682;DHT22;11002;48.256;10.084;2022-10-03T05:14:20;18.60;39.00
21682;DHT22;11002;48.256;10.084;2022-10-03T05:16:55;18.60;39.00
21682;DHT22;11002;48.256;10.084;2022-10-03T05:19:46;18.60;38.90
21682;DHT22;11002;48.256;10.084;2022-10-03T05:22:36;18.60;38.90
21682;DHT22;11002;48.256;10.084;2022-10-03T05:25:21;18.60;38.90
21682;DHT22;11002;48.256;10.084;2022-10-03T05:27:54;18.60;38.90
21682;DHT22;11002;48.256;10.084;2022-10-03T05:30:35;18.60;38.90
21682;DHT22;11002;48.256;10.084;2022-10-03T05:33:10;18.60;38.90
21682;DHT22;11002;48.256;10.084;2022-10-03T05:35:50;18.60;38.90
21682;DHT22;11002;48.256;10.084;2022-10-03T05:41:29;18.60;38.90
21682;DHT22;11002;48.256;10.084;2022-10-03T05:44:02;18.60;38.80
21682;DHT22;11002;48.256;10.084;2022-10-03T05:46:55;18.60;38.80
21682;DHT22;11002;48.256;10.084;2022-10-03T05:52:32;18.60;38.90
21682;DHT22;11002;48.256;10.084;2022-10-03T05:55:28;18.60;38.70
21682;DHT22;11002;48.256;10.084;2022-10-03T05:58:30;18.60;38.80
21682;DHT22;11002;48.256;10.084;2022-10-03T06:04:24;18.60;38.80
21682;DHT22;11002;48.256;10.084;2022-10-03T06:07:11;18.60;38.80
21682;DHT22;11002;48.256;10.084;2022-10-03T06:10:03;18.60;38.80
21682;DHT22;11002;48.256;10.084;2022-10-03T06:12:42;18.60;38.90
21682;DHT22;11002;48.256;10.084;2022-10-03T06:15:35;18.60;38.80
21682;DHT22;11002;48.256;10.084;2022-10-03T06:18:20;18.60;38.80
21682;DHT22;11002;48.256;10.084;2022-10-03T06:27:48;18.60;38.80
21682;DHT22;11002;48.256;10.084;2022-10-03T06:30:42;18.60;38.80
21682;DHT22;11002;48.256;10.084;2022-10-03T06:40:02;18.60;38.70
21682;DHT22;11002;48.256;10.084;2022-10-03T06:42:57;18.60;38.70
21682;DHT22;11002;48.256;10.084;2022-10-03T06:49:02;18.60;38.80
21682;DHT22;11002;48.256;10.084;2022-10-03T06:51:48;18.60;38.70
21682;DHT22;11002;48.256;10.084;2022-10-03T06:57:53;18.60;38.80
21682;DHT22;11002;48.256;10.084;2022-10-03T07:00:35;18.60;38.70
21682;DHT22;11002;48.256;10.084;2022-10-03T07:03:27;18.60;38.70
21682;DHT22;11002;48.256;10.084;2022-10-03T07:09:59;18.60;38.70
21682;DHT22;11002;48.256;10.084;2022-10-03T07:13:01;18.60;38.70
21682;DHT22;11002;48.256;10.084;2022-10-03T07:15:54;18.60;38.70
21682;DHT22;11002;48.256;10.084;2022-10-03T07:27:53;18.60;38.70
21682;DHT22;11002;48.256;10.084;2022-10-03T07:30:27;18.60;38.60
21682;DHT22;11002;48.256;10.084;2022-10-03T07:33:32;18.60;38.70
21682;DHT22;11002;48.256;10.084;2022-10-03T07:36:36;18.60;38.70
21682;DHT22;11002;48.256;10.084;2022-10-03T07:43:13;18.60;38.70
21682;DHT22;11002;48.256;10.084;2022-10-03T07:46:12;18.60;38.60
21682;DHT22;11002;48.256;10.084;2022-10-03T07:49:05;18.60;38.60
21682;DHT22;11002;48.256;10.084;2022-10-03T07:51:43;18.60;38.60
21682;DHT22;11002;48.256;10.084;2022-10-03T07:54:28;18.60;38.70
21682;DHT22;11002;48.256;10.084;2022-10-03T08:03:25;18.60;38.60
21682;DHT22;11002;48.256;10.084;2022-10-03T08:06:15;18.60;38.70
21682;DHT22;11002;48.256;10.084;2022-10-03T08:08:58;18.60;38.60
21682;DHT22;11002;48.256;10.084;2022-10-03T08:11:53;18.60;38.70
21682;DHT22;11002;48.256;10.084;2022-10-03T08:14:31;18.60;38.60
21682;DHT22;11002;48.256;10.084;2022-10-03T08:17:32;18.60;38.60
21682;DHT22;11002;48.256;10.084;2022-10-03T08:20:19;18.60;38.60
21682;DHT22;11002;48.256;10.084;2022-10-03T08:23:00;18.60;38.60
21682;DHT22;11002;48.256;10.084;2022-10-03T08:25:46;18.60;38.50
21682;DHT22;11002;48.256;10.084;2022-10-03T08:34:42;18.70;38.50
21682;DHT22;11002;48.256;10.084;2022-10-03T08:44:06;18.70;38.60
21682;DHT22;11002;48.256;10.084;2022-10-03T08:46:59;18.70;38.60
21682;DHT22;11002;48.256;10.084;2022-10-03T08:52:39;18.70;38.60
21682;DHT22;11002;48.256;10.084;2022-10-03T08:55:39;18.70;38.60
21682;DHT22;11002;48.256;10.084;2022-10-03T08:58:41;18.70;38.50
21682;DHT22;11002;48.256;10.084;2022-10-03T09:07:39;18.70;38.60
21682;DHT22;11002;48.256;10.084;2022-10-03T09:10:50;18.70;38.60
21682;DHT22;11002;48.256;10.084;2022-10-03T09:14:03;18.70;38.60
21682;DHT22;11002;48.256;10.084;2022-10-03T09:17:00;18.70;38.60
21682;DHT22;11002;48.256;10.084;2022-10-03T09:20:05;18.70;38.60
21682;DHT22;11002;48.256;10.084;2022-10-03T09:28:58;18.70;38.60
21682;DHT22;11002;48.256;10.084;2022-10-03T09:31:51;18.70;38.70
21682;DHT22;11002;48.256;10.084;2022-10-03T09:34:58;18.70;38.60
21682;DHT22;11002;48.256;10.084;2022-10-03T09:37:41;18.70;38.70
21682;DHT22;11002;48.256;10.084;2022-10-03T09:40:43;18.70;38.70
21682;DHT22;11002;48.256;10.084;2022-10-03T09:53:23;18.70;38.70
21682;DHT22;11002;48.256;10.084;2022-10-03T09:56:24;18.70;38.70
21682;DHT22;11002;48.256;10.084;2022-10-03T09:59:13;18.70;38.70
21682;DHT22;11002;48.256;10.084;2022-10-03T10:01:49;18.70;38.70
21682;DHT22;11002;48.256;10.084;2022-10-03T10:04:44;18.70;38.70
21682;DHT22;11002;48.256;10.084;2022-10-03T10:07:51;18.70;38.70
21682;DHT22;11002;48.256;10.084;2022-10-03T10:10:56;18.70;38.70
21682;DHT22;11002;48.256;10.084;2022-10-03T10:19:39;18.70;38.70
21682;DHT22;11002;48.256;10.084;2022-10-03T10:25:28;18.70;38.70
21682;DHT22;11002;48.256;10.084;2022-10-03T10:28:25;18.70;38.70
21682;DHT22;11002;48.256;10.084;2022-10-03T10:37:22;18.70;38.70
21682;DHT22;11002;48.256;10.084;2022-10-03T10:43:29;18.70;38.70
21682;DHT22;11002;48.256;10.084;2022-10-03T10:50:14;18.70;38.70
21682;DHT22;11002;48.256;10.084;2022-10-03T10:56:38;18.70;38.70
21682;DHT22;11002;48.256;10.084;2022-10-03T11:09:04;18.70;38.70
21682;DHT22;11002;48.256;10.084;2022-10-03T11:12:06;18.70;38.70
21682;DHT22;11002;48.256;10.084;2022-10-03T11:15:18;18.70;38.70
21682;DHT22;11002;48.256;10.084;2022-10-03T11:21:57;18.70;38.70
21682;DHT22;11002;48.256;10.084;2022-10-03T11:28:17;18.70;38.70
21682;DHT22;11002;48.256;10.084;2022-10-03T11:37:11;18.70;38.70
21682;DHT22;11002;48.256;10.084;2022-10-03T11:39:47;18.70;38.70
21682;DHT22;11002;48.256;10.084;2022-10-03T11:42:23;18.70;38.70
21682;DHT22;11002;48.256;10.084;2022-10-03T11:44:57;18.70;38.80
21682;DHT22;11002;48.256;10.084;2022-10-03T11:47:43;18.70;38.80
21682;DHT22;11002;48.256;10.084;2022-10-03T11:50:41;18.70;38.80
21682;DHT22;11002;48.256;10.084;2022-10-03T11:53:32;18.70;38.70
21682;DHT22;11002;48.256;10.084;2022-10-03T11:56:19;18.70;38.70
21682;DHT22;11002;48.256;10.084;2022-10-03T11:58:58;18.70;38.70
21682;DHT22;11002;48.256;10.084;2022-10-03T12:01:38;18.70;38.70
21682;DHT22;11002;48.256;10.084;2022-10-03T12:04:16;18.70;38.60
21682;DHT22;11002;48.256;10.084;2022-10-03T12:07:01;18.70;38.70
21682;DHT22;11002;48.256;10.084;2022-10-03T12:10:04;18.70;38.70
21682;DHT22;11002;48.256;10.084;2022-10-03T12:12:39;18.70;38.70
21682;DHT22;11002;48.256;10.084;2022-10-03T12:15:23;18.70;38.70
21682;DHT22;11002;48.256;10.084;2022-10-03T12:18:02;18.70;38.70
21682;DHT22;11002;48.256;10.084;2022-10-03T12:20:40;18.70;38.70
21682;DHT22;11002;48.256;10.084;2022-10-03T12:23:21;18.70;38.60
21682;DHT22;11002;48.256;10.084;2022-10-03T12:25:56;18.70;38.60
21682;DHT22;11002;48.256;10.084;2022-10-03T12:28:31;18.70;38.60
21682;DHT22;11002;48.256;10.084;2022-10-03T12:31:07;18.70;38.60
21682;DHT22;11002;48.256;10.084;2022-10-03T12:33:48;18.70;38.60
21682;DHT22;11002;48.256;10.084;2022-10-03T12:36:18;18.70;38.60
21682;DHT22;11002;48.256;10.084;2022-10-03T12:39:00;18.70;38.60
21682;DHT22;11002;48.256;10.084;2022-10-03T12:41:45;18.70;38.60
21682;DHT22;11002;48.256;10.084;2022-10-03T12:44:19;18.70;38.60
21682;DHT22;11002;48.256;10.084;2022-10-03T12:46:58;18.70;38.60
21682;DHT22;11002;48.256;10.084;2022-10-03T12:49:42;18.70;38.50
21682;DHT22;11002;48.256;10.084;2022-10-03T12:52:19;18.70;38.60
21682;DHT22;11002;48.256;10.084;2022-10-03T12:54:52;18.70;38.50
21682;DHT22;11002;48.256;10.084;2022-10-03T12:57:38;18.70;38.60
21682;DHT22;11002;48.256;10.084;2022-10-03T13:00:19;18.70;38.70
21682;DHT22;11002;48.256;10.084;2022-10-03T13:03:09;18.70;38.60
21682;DHT22;11002;48.256;10.084;2022-10-03T13:05:55;18.70;38.60
21682;DHT22;11002;48.256;10.084;2022-10-03T13:08:39;18.70;38.60
21682;DHT22;11002;48.256;10.084;2022-10-03T13:11:22;18.70;38.60
21682;DHT22;11002;48.256;10.084;2022-10-03T13:14:03;18.70;38.60
21682;DHT22;11002;48.256;10.084;2022-10-03T13:16:34;18.70;38.60
21682;DHT22;11002;48.256;10.084;2022-10-03T13:19:10;18.70;38.60
21682;DHT22;11002;48.256;10.084;2022-10-03T13:21:53;18.70;38.60
21682;DHT22;11002;48.256;10.084;2022-10-03T13:24:33;18.70;38.60
21682;DHT22;11002;48.256;10.084;2022-10-03T13:27:16;18.70;38.60
21682;DHT22;11002;48.256;10.084;2022-10-03T13:29:48;18.70;38.60
21682;DHT22;11002;48.256;10.084;2022-10-03T13:32:27;18.70;38.60
21682;DHT22;11002;48.256;10.084;2022-10-03T13:35:09;18.70;38.60
21682;DHT22;11002;48.256;10.084;2022-10-03T13:38:21;18.70;38.60
21682;DHT22;11002;48.256;10.084;2022-10-03T13:40:56;18.70;38.60
21682;DHT22;11002;48.256;10.084;2022-10-03T13:43:30;18.70;38.60
21682;DHT22;11002;48.256;10.084;2022-10-03T13:46:04;18.70;38.60
21682;DHT22;11002;48.256;10.084;2022-10-03T13:48:33;18.70;38.60
21682;DHT22;11002;48.256;10.084;2022-10-03T13:51:05;18.70;38.60
21682;DHT22;11002;48.256;10.084;2022-10-03T13:53:43;18.70;38.60
21682;DHT22;11002;48.256;10.084;2022-10-03T13:56:18;18.70;38.60
21682;DHT22;11002;48.256;10.084;2022-10-03T13:58:54;18.70;38.50
21682;DHT22;11002;48.256;10.084;2022-10-03T14:01:32;18.70;38.60
21682;DHT22;11002;48.256;10.084;2022-10-03T14:07:05;18.70;38.60
21682;DHT22;11002;48.256;10.084;2022-10-03T14:09:41;18.70;38.60
21682;DHT22;11002;48.256;10.084;2022-10-03T14:12:18;18.70;38.60
21682;DHT22;11002;48.256;10.084;2022-10-03T14:15:05;18.70;38.60
21682;DHT22;11002;48.256;10.084;2022-10-03T14:17:40;18.70;38.60
21682;DHT22;11002;48.256;10.084;2022-10-03T14:20:19;18.70;38.50
21682;DHT22;11002;48.256;10.084;2022-10-03T14:25:39;18.70;38.50
21682;DHT22;11002;48.256;10.084;2022-10-03T14:28:15;18.70;38.50
21682;DHT22;11002;48.256;10.084;2022-10-03T14:30:51;18.70;38.60
21682;DHT22;11002;48.256;10.084;2022-10-03T14:33:30;18.70;38.50
21682;DHT22;11002;48.256;10.084;2022-10-03T14:36:15;18.70;38.60
21682;DHT22;11002;48.256;10.084;2022-10-03T14:38:53;18.70;38.50
21682;DHT22;11002;48.256;10.084;2022-10-03T14:41:44;18.70;38.50
21682;DHT22;11002;48.256;10.084;2022-10-03T14:44:17;18.70;38.50
21682;DHT22;11002;48.256;10.084;2022-10-03T14:46:49;18.70;38.40
21682;DHT22;11002;48.256;10.084;2022-10-03T14:49:24;18.70;38.40
21682;DHT22;11002;48.256;10.084;2022-10-03T14:51:57;18.70;38.50
21682;DHT22;11002;48.256;10.084;2022-10-03T14:54:27;18.70;38.40
21682;DHT22;11002;48.256;10.084;2022-10-03T14:56:57;18.70;38.50
21682;DHT22;11002;48.256;10.084;2022-10-03T14:59:26;18.70;38.40
21682;DHT22;11002;48.256;10.084;2022-10-03T15:01:58;18.70;38.50
21682;DHT22;11002;48.256;10.084;2022-10-03T15:04:30;18.70;38.50
21682;DHT22;11002;48.256;10.084;2022-10-03T15:06:59;18.70;38.50
21682;DHT22;11002;48.256;10.084;2022-10-03T15:09:31;18.70;39.20
21682;DHT22;11002;48.256;10.084;2022-10-03T15:12:03;18.70;38.40
21682;DHT22;11002;48.256;10.084;2022-10-03T15:14:35;18.70;38.40
21682;DHT22;11002;48.256;10.084;2022-10-03T15:17:14;18.70;38.50
21682;DHT22;11002;48.256;10.084;2022-10-03T15:19:46;18.70;38.40
21682;DHT22;11002;48.256;10.084;2022-10-03T15:22:25;18.70;38.40
21682;DHT22;11002;48.256;10.084;2022-10-03T15:24:57;18.70;38.40
21682;DHT22;11002;48.256;10.084;2022-10-03T15:27:27;18.70;38.40
21682;DHT22;11002;48.256;10.084;2022-10-03T15:29:57;18.70;38.40
21682;DHT22;11002;48.256;10.084;2022-10-03T15:32:28;18.70;38.40
21682;DHT22;11002;48.256;10.084;2022-10-03T15:34:59;18.70;38.40
21682;DHT22;11002;48.256;10.084;2022-10-03T15:37:30;18.70;38.40
21682;DHT22;11002;48.256;10.084;2022-10-03T15:40:07;18.70;38.40
21682;DHT22;11002;48.256;10.084;2022-10-03T15:42:48;18.70;38.50
21682;DHT22;11002;48.256;10.084;2022-10-03T15:45:20;18.70;38.40
21682;DHT22;11002;48.256;10.084;2022-10-03T15:47:50;18.70;38.40
21682;DHT22;11002;48.256;10.084;2022-10-03T15:50:22;18.70;38.40
21682;DHT22;11002;48.256;10.084;2022-10-03T15:52:52;18.70;38.40
21682;DHT22;11002;48.256;10.084;2022-10-03T15:55:25;18.70;38.40
21682;DHT22;11002;48.256;10.084;2022-10-03T15:57:59;18.70;38.40
21682;DHT22;11002;48.256;10.084;2022-10-03T16:00:29;18.70;38.40
21682;DHT22;11002;48.256;10.084;2022-10-03T16:03:07;18.70;38.40
21682;DHT22;11002;48.256;10.084;2022-10-03T16:05:48;18.70;38.40
21682;DHT22;11002;48.256;10.084;2022-10-03T16:08:20;18.70;38.40
21682;DHT22;11002;48.256;10.084;2022-10-03T16:10:58;18.70;38.40
21682;DHT22;11002;48.256;10.084;2022-10-03T16:13:34;18.70;38.40
21682;DHT22;11002;48.256;10.084;2022-10-03T16:16:17;18.70;38.40
21682;DHT22;11002;48.256;10.084;2022-10-03T16:18:55;18.70;38.40
21682;DHT22;11002;48.256;10.084;2022-10-03T16:21:44;18.70;38.40
21682;DHT22;11002;48.256;10.084;2022-10-03T16:24:21;18.70;38.40
21682;DHT22;11002;48.256;10.084;2022-10-03T16:26:55;18.70;38.40
21682;DHT22;11002;48.256;10.084;2022-10-03T16:29:26;18.70;38.40
21682;DHT22;11002;48.256;10.084;2022-10-03T16:31:57;18.70;38.50
21682;DHT22;11002;48.256;10.084;2022-10-03T16:34:29;18.70;38.40
21682;DHT22;11002;48.256;10.084;2022-10-03T16:36:59;18.70;38.40
21682;DHT22;11002;48.256;10.084;2022-10-03T16:39:31;18.70;38.40
21682;DHT22;11002;48.256;10.084;2022-10-03T16:42:08;18.70;38.40
21682;DHT22;11002;48.256;10.084;2022-10-03T16:44:40;18.70;38.40
21682;DHT22;11002;48.256;10.084;2022-10-03T16:47:14;18.70;38.40
21682;DHT22;11002;48.256;10.084;2022-10-03T16:49:48;18.70;38.40
21682;DHT22;11002;48.256;10.084;2022-10-03T16:52:46;18.70;38.40
21682;DHT22;11002;48.256;10.084;2022-10-03T16:55:16;18.70;38.40
21682;DHT22;11002;48.256;10.084;2022-10-03T16:57:46;18.70;38.40
21682;DHT22;11002;48.256;10.084;2022-10-03T17:00:19;18.70;38.40
21682;DHT22;11002;48.256;10.084;2022-10-03T17:02:48;18.70;38.40
21682;DHT22;11002;48.256;10.084;2022-10-03T17:05:16;18.70;38.50
21682;DHT22;11002;48.256;10.084;2022-10-03T17:07:48;18.70;38.40
21682;DHT22;11002;48.256;10.084;2022-10-03T17:10:26;18.70;38.50
21682;DHT22;11002;48.256;10.084;2022-10-03T17:12:56;18.70;38.40
21682;DHT22;11002;48.256;10.084;2022-10-03T17:15:28;18.70;38.40
21682;DHT22;11002;48.256;10.084;2022-10-03T17:18:05;18.70;38.40
21682;DHT22;11002;48.256;10.084;2022-10-03T17:20:40;18.70;38.40
21682;DHT22;11002;48.256;10.084;2022-10-03T17:23:20;18.70;38.40
21682;DHT22;11002;48.256;10.084;2022-10-03T17:25:57;18.70;38.40
21682;DHT22;11002;48.256;10.084;2022-10-03T17:28:33;18.70;38.40
21682;DHT22;11002;48.256;10.084;2022-10-03T17:31:04;18.70;38.40
21682;DHT22;11002;48.256;10.084;2022-10-03T17:33:37;18.70;38.40
21682;DHT22;11002;48.256;10.084;2022-10-03T17:36:50;18.70;38.40
21682;DHT22;11002;48.256;10.084;2022-10-03T17:39:38;18.70;38.40
21682;DHT22;11002;48.256;10.084;2022-10-03T17:42:17;18.70;38.40
21682;DHT22;11002;48.256;10.084;2022-10-03T17:44:56;18.70;38.40
21682;DHT22;11002;48.256;10.084;2022-10-03T17:47:32;18.70;38.30
21682;DHT22;11002;48.256;10.084;2022-10-03T17:50:10;18.70;38.40
21682;DHT22;11002;48.256;10.084;2022-10-03T17:52:43;18.70;38.40
21682;DHT22;11002;48.256;10.084;2022-10-03T17:55:19;18.60;38.30
21682;DHT22;11002;48.256;10.084;2022-10-03T17:57:50;18.70;38.40
21682;DHT22;11002;48.256;10.084;2022-10-03T18:00:21;18.70;38.40
21682;DHT22;11002;48.256;10.084;2022-10-03T18:02:56;18.70;38.40
21682;DHT22;11002;48.256;10.084;2022-10-03T18:05:27;18.70;38.40
21682;DHT22;11002;48.256;10.084;2022-10-03T18:07:55;18.70;38.40
21682;DHT22;11002;48.256;10.084;2022-10-03T18:10:31;18.70;38.40
21682;DHT22;11002;48.256;10.084;2022-10-03T18:13:01;18.60;38.30
21682;DHT22;11002;48.256;10.084;2022-10-03T18:18:47;18.70;38.40
21682;DHT22;11002;48.256;10.084;2022-10-03T18:21:30;18.70;38.40
21682;DHT22;11002;48.256;10.084;2022-10-03T18:30:19;18.70;38.30
21682;DHT22;11002;48.256;10.084;2022-10-03T18:32:48;18.70;38.30
21682;DHT22;11002;48.256;10.084;2022-10-03T18:35:19;18.70;38.40
21682;DHT22;11002;48.256;10.084;2022-10-03T18:38:10;18.70;38.40
21682;DHT22;11002;48.256;10.084;2022-10-03T18:40:47;18.70;38.40
21682;DHT22;11002;48.256;10.084;2022-10-03T18:43:32;18.70;38.30
21682;DHT22;11002;48.256;10.084;2022-10-03T18:46:13;18.70;38.30
21682;DHT22;11002;48.256;10.084;2022-10-03T18:48:48;18.70;38.30
21682;DHT22;11002;48.256;10.084;2022-10-03T18:51:28;18.70;38.30
21682;DHT22;11002;48.256;10.084;2022-10-03T18:53:58;18.70;38.30
21682;DHT22;11002;48.256;10.084;2022-10-03T18:56:28;18.70;38.30
21682;DHT22;11002;48.256;10.084;2022-10-03T18:59:12;18.70;38.30
21682;DHT22;11002;48.256;10.084;2022-10-03T19:01:47;18.70;38.30
21682;DHT22;11002;48.256;10.084;2022-10-03T19:04:31;18.70;38.30
21682;DHT22;11002;48.256;10.084;2022-10-03T19:07:02;18.70;38.30
21682;DHT22;11002;48.256;10.084;2022-10-03T19:09:40;18.70;38.30
21682;DHT22;11002;48.256;10.084;2022-10-03T19:12:15;18.70;38.30
21682;DHT22;11002;48.256;10.084;2022-10-03T19:15:00;18.70;38.30
21682;DHT22;11002;48.256;10.084;2022-10-03T19:17:34;18.70;38.30
21682;DHT22;11002;48.256;10.084;2022-10-03T19:20:18;18.60;38.20
21682;DHT22;11002;48.256;10.084;2022-10-03T19:22:57;18.70;38.30
21682;DHT22;11002;48.256;10.084;2022-10-03T19:25:26;18.70;38.30
21682;DHT22;11002;48.256;10.084;2022-10-03T19:27:57;18.70;38.30
21682;DHT22;11002;48.256;10.084;2022-10-03T19:30:29;18.70;38.30
21682;DHT22;11002;48.256;10.084;2022-10-03T19:32:58;18.70;38.30
21682;DHT22;11002;48.256;10.084;2022-10-03T19:35:28;18.70;38.30
21682;DHT22;11002;48.256;10.084;2022-10-03T19:38:00;18.70;38.60
21682;DHT22;11002;48.256;10.084;2022-10-03T19:40:41;18.70;38.20
21682;DHT22;11002;48.256;10.084;2022-10-03T19:43:29;18.70;38.30
21682;DHT22;11002;48.256;10.084;2022-10-03T19:46:09;18.70;38.30
21682;DHT22;11002;48.256;10.084;2022-10-03T19:48:46;18.70;38.20
21682;DHT22;11002;48.256;10.084;2022-10-03T19:51:15;18.70;38.20